x

Lake Simcoe (45151) Wave Buoy

11:00am - Sun 28th Aug 2016 All times are CDT. -5 hours from GMT.

  • Sig Wave height 0.3ft
  • Peak Period 2s
  • Wind
    7mph, 9mph gusts
  • Sea Temp 74°f
  • Air Temp 75°f
  • Sea Pressure 1020.6mb
  • Lake Simcoe
  • Lake Simcoe

More Historic Weather Station data

Upgrade to MSW Pro to gain access to the past 30 days of data for over 8000 Wavebouys and Weather Stations around the globe.

Join Pro

Comparision Forecast

View Surf forecast
   
Sun 08/28 11:00am 0.3ft 2s 7 9 mph 1020.6mb 74f 75f
10:00am 0.7ft 2s 7 9 mph 1020.3mb 74f 73f
9:00am 0.7ft 2s 9 11 mph 1020.5mb 74f 72f
8:00am 0.3ft 3s 9 11 mph 1020.4mb 74f 71f
7:00am  -  2s 4 7 mph 1020.9mb 74f 72f
6:00am  -  2s 4 7 mph 1020.7mb 74f 71f
5:00am 0.3ft 3s 7 9 mph 1020.4mb 74f 71f
4:00am 0.3ft 2s 7
mph
1020.2mb 74f 71f
3:00am 0.7ft 2s 7 9 mph 1020.1mb 74f 72f
2:00am 0.7ft 2s 9 11 mph 1020.4mb 74f 72f
1:00am 1ft 2s 11
mph
1020.6mb 74f 72f
12:00am 1ft 3s 13 16 mph 1020.9mb 74f 73f
Sat 08/27 11:00pm 1ft 2s 13 16 mph 1020.6mb 74f 74f
10:00pm 1ft 2s 13 16 mph 1020.3mb 74f 74f
9:00pm 0.7ft 2s 13
mph
1020.9mb 74f 74f
8:00pm 0.3ft 2s 11 13 mph 1021mb 75f 75f
7:00pm 0.3ft 2s 7 9 mph 1021.5mb 75f 75f
6:00pm 0.3ft 2s 4 7 mph 1021.6mb 76f 76f
5:00pm 0.3ft 2s 2 4 mph 1022mb 76f 76f
4:00pm 0.3ft 2s 2 4 mph 1021.9mb 76f 76f
3:00pm 0.3ft 2s 2 4 mph 1021.9mb 78f 76f
2:00pm 0.3ft 2s 2 4 mph 1022.2mb 77f 76f
1:00pm 0.3ft 2s  -  mph 1022.5mb 77f 76f
12:00pm 0.3ft 2s  -  2 mph 1023.1mb 76f 74f
11:00am 0.3ft 4s  -  2 mph 1023.3mb 75f 72f
10:00am  -  2s 4 7 mph 1023.7mb 74f 70f
9:00am 0.3ft 3s 4 7 mph 1023.7mb 74f 70f
8:00am  -  2s 2 4 mph 1023.6mb 74f 71f
7:00am  -  2s 2 4 mph 1023.8mb 74f 70f
6:00am  -  3s 2 4 mph 1023.7mb 74f 67f
5:00am  -  3s 4
mph
1023.1mb 74f 67f
4:00am 0.3ft 3s 4 7 mph 1022.8mb 74f 67f
3:00am 0.3ft 3s 7 9 mph 1022.3mb 74f 67f
2:00am 0.3ft 2s 9 13 mph 1022.1mb 74f 67f
1:00am 0.3ft 2s 13
mph
1022.2mb 74f 68f
12:00am 0.3ft 2s 9 11 mph 1022mb 74f 67f
Fri 08/26 11:00pm 0.3ft 3s 9 11 mph 1021.7mb 74f 68f
10:00pm 0.3ft 2s 9 11 mph 1021.6mb 74f 68f
9:00pm 0.3ft 2s 7 9 mph 1020.9mb 74f 69f
8:00pm 0.7ft 2s 9 11 mph 1020.6mb 74f 70f
7:00pm 1ft 2s 13 16 mph 1020mb 74f 71f
6:00pm 0.7ft 2s 13 16 mph 1019.1mb 74f 73f
5:00pm 0.7ft 2s 13
mph
1018.7mb 75f 75f
4:00pm 0.7ft 2s 13 16 mph 1018.6mb 75f 76f
3:00pm 0.7ft 2s 13 16 mph 1018.4mb 75f 76f
2:00pm 0.7ft 2s 13 18 mph 1018.3mb 75f 77f
1:00pm 0.7ft 2s 13 18 mph 1018.5mb 75f 77f
12:00pm 0.7ft 2s 13 18 mph 1018.4mb 74f 77f
11:00am 0.7ft 2s 9 13 mph 1018.7mb 74f 74f
10:00am 0.3ft 2s 9 11 mph 1018.6mb 74f 71f
9:00am 0.3ft 2s 7 9 mph 1018.6mb 74f 70f
8:00am 0.3ft 2s 9 11 mph 1018.2mb 74f 70f
7:00am 0.3ft 2s 9 11 mph 1017.6mb 74f 69f
6:00am 0.3ft 2s 11
mph
1017mb 74f 69f
5:00am 0.3ft 3s 9
mph
1016.2mb 74f 69f
4:00am 0.3ft 2s 11 13 mph 1015.8mb 74f 70f
3:00am 0.3ft 3s 9 13 mph 1015.7mb 74f 69f
2:00am 0.3ft 2s 9 13 mph 1015.4mb 74f 70f
1:00am 0.7ft 2s 11 13 mph 1014.8mb 74f 71f
12:00am  -  3s 13 16 mph 1014.5mb 74f 72f
Thu 08/25 11:00pm  -  2s 7 9 mph 1013.9mb 74f 72f
10:00pm 0.3ft 2s 4 7 mph 1013.6mb 74f 72f
9:00pm 0.3ft 3s 7 9 mph 1013.6mb 75f 73f
8:00pm  -  2s 4 7 mph 1013.4mb 75f 75f
7:00pm  -  2s 4
mph
1013.4mb 75f 76f
6:00pm  -  2s 4
mph
1013.2mb 75f 77f
5:00pm  -  2s 4
mph
1013.1mb 75f 78f
4:00pm 0.3ft 2s 7
mph
1013.2mb 75f 77f
3:00pm 0.3ft 2s 7 9 mph 1013.1mb 75f 77f
2:00pm 0.3ft 2s 7
mph
1013.4mb 74f 77f
1:00pm 0.3ft 2s 7 9 mph 1013.2mb 74f 77f
12:00pm 0.7ft 2s 11 13 mph 1013.5mb 74f 77f
11:00am 0.7ft 2s 13 16 mph 1013.8mb 74f 76f
10:00am 0.7ft 2s 13 16 mph 1013.7mb 74f 76f
9:00am 0.7ft 2s 13 16 mph 1013.3mb 74f 75f
8:00am 0.7ft 2s 11 16 mph 1013.2mb 74f 74f
7:00am 0.7ft 2s 9 11 mph 1013.3mb 74f 72f
6:00am 0.7ft 2s 9 13 mph 1013.2mb 74f 71f
5:00am 0.7ft 3s 9 11 mph 1012.8mb 74f 71f
4:00am 1ft 3s 11 13 mph 1012.3mb 74f 71f
3:00am 1ft 3s 11 13 mph 1012.4mb 74f 71f
2:00am 1.3ft 3s 13
mph
1012.8mb 74f 71f
1:00am 1.6ft 3s 13 18 mph 1013.2mb 74f 71f
12:00am 1.3ft 3s 13 18 mph 1013.7mb 74f 71f
Wed 08/24 11:00pm 1ft 2s 11 13 mph 1014.2mb 74f 75f
10:00pm 1.3ft 3s 13
mph
1014.6mb 74f 75f
9:00pm 1.3ft 3s 11 13 mph 1015mb 74f 76f
8:00pm 1.3ft 3s 13 16 mph 1015.3mb 74f 76f
7:00pm 1ft 2s 13 18 mph 1015.3mb 74f 77f
6:00pm 1.3ft 3s 11 13 mph 1015.3mb 74f 77f